Time;durP1;ratioP1;P1;durP2;ratioP2;P2;SDS_P1;SDS_P2;PMS_P1;PMS_P2;Temp;Humidity;BMP_temperature;BMP_pressure;BME280_temperature;BME280_humidity;BME280_pressure;Samples;Min_cycle;Max_cycle;Signal;HPM_P1;HPM_P2
2023/08/17 00:01:54;;;;;;;16.47;14.17;;;;;;;;;;5068354;28;20524;-82
2023/08/17 00:04:21;;;;;;;16.70;15.10;;;;;;;;;;5068161;28;20543;-82
2023/08/17 00:06:58;;;;;;;16.13;14.63;;;;;;;;;;5068545;28;20467;-81
2023/08/17 00:09:26;;;;;;;15.73;14.23;;;;;;;;;;5068038;28;20443;-82
2023/08/17 00:11:53;;;;;;;15.90;14.40;;;;;;;;;;5068644;28;21011;-83
2023/08/17 00:14:20;;;;;;;15.77;14.17;;;;;;;;;;5067243;28;20509;-83
2023/08/17 00:16:48;;;;;;;15.50;13.83;;;;;;;;;;5066928;28;20502;-83
2023/08/17 00:19:15;;;;;;;15.80;14.33;;;;;;;;;;5066640;28;20894;-83
2023/08/17 00:21:47;;;;;;;16.50;14.80;;;;;;;;;;5066054;28;20461;-83
2023/08/17 00:24:16;;;;;;;17.60;15.90;;;;;;;;;;5066559;28;20821;-83
2023/08/17 00:26:43;;;;;;;17.20;15.43;;;;;;;;;;5067611;28;20453;-81
2023/08/17 00:29:10;;;;;;;15.80;14.20;;;;;;;;;;5067933;28;20467;-82
2023/08/17 00:31:38;;;;;;;15.53;13.93;;;;;;;;;;5067828;28;20483;-81
2023/08/17 00:34:05;;;;;;;15.57;14.10;;;;;;;;;;5067066;28;20451;-80
2023/08/17 00:36:33;;;;;;;15.00;13.53;;;;;;;;;;5066664;28;20463;-81
2023/08/17 00:39:00;;;;;;;16.03;14.13;;;;;;;;;;5066266;28;20508;-82
2023/08/17 00:41:30;;;;;;;15.20;13.53;;;;;;;;;;5059908;28;20452;-82
2023/08/17 00:43:57;;;;;;;15.80;14.10;;;;;;;;;;5059817;28;20441;-84
2023/08/17 00:46:26;;;;;;;15.03;13.00;;;;;;;;;;5060039;28;20484;-83
2023/08/17 00:48:54;;;;;;;15.63;13.97;;;;;;;;;;5059779;28;20445;-83
2023/08/17 00:51:23;;;;;;;15.47;14.07;;;;;;;;;;5059995;28;20884;-83
2023/08/17 00:53:50;;;;;;;15.47;14.07;;;;;;;;;;5059445;28;20453;-83
2023/08/17 00:56:17;;;;;;;15.53;14.10;;;;;;;;;;5058845;28;20499;-83
2023/08/17 00:58:46;;;;;;;19.50;17.33;;;;;;;;;;5059772;28;20536;-83
2023/08/17 01:01:13;;;;;;;15.77;14.27;;;;;;;;;;5059930;28;20984;-83
2023/08/17 01:03:41;;;;;;;17.77;16.03;;;;;;;;;;5060040;28;20874;-83
2023/08/17 01:06:08;;;;;;;18.20;15.17;;;;;;;;;;5059265;28;20460;-83
2023/08/17 01:08:36;;;;;;;16.23;14.57;;;;;;;;;;5059159;28;20479;-83
2023/08/17 01:11:07;;;;;;;15.80;14.20;;;;;;;;;;5059385;28;20445;-83
2023/08/17 01:13:36;;;;;;;15.50;14.00;;;;;;;;;;5060101;28;20457;-82
2023/08/17 01:16:07;;;;;;;16.57;14.87;;;;;;;;;;5059365;28;20490;-81
2023/08/17 01:18:36;;;;;;;20.87;17.50;;;;;;;;;;5060125;28;20902;-81
2023/08/17 01:21:03;;;;;;;15.30;13.73;;;;;;;;;;5058415;28;20464;-82
2023/08/17 01:23:32;;;;;;;17.60;14.77;;;;;;;;;;5058492;28;20469;-82
2023/08/17 01:25:59;;;;;;;15.90;13.30;;;;;;;;;;5059201;28;20461;-83
2023/08/17 01:28:27;;;;;;;15.13;13.63;;;;;;;;;;5059140;28;20441;-83
2023/08/17 01:30:57;;;;;;;24.20;14.43;;;;;;;;;;5058705;28;20949;-83
2023/08/17 01:33:27;;;;;;;13.23;12.13;;;;;;;;;;5059516;28;20483;-83
2023/08/17 01:36:00;;;;;;;15.03;13.67;;;;;;;;;;5059168;28;21091;-83
2023/08/17 01:38:29;;;;;;;15.20;13.67;;;;;;;;;;5059514;28;20448;-83
2023/08/17 01:40:58;;;;;;;12.33;11.23;;;;;;;;;;5059869;28;20456;-83
2023/08/17 01:43:25;;;;;;;13.17;11.90;;;;;;;;;;5058476;28;20559;-83
2023/08/17 01:45:53;;;;;;;14.70;13.27;;;;;;;;;;5059844;28;20841;-83
2023/08/17 01:48:20;;;;;;;13.63;12.33;;;;;;;;;;5058118;28;20463;-82
2023/08/17 01:50:47;;;;;;;12.20;10.87;;;;;;;;;;5065956;28;20456;-83
2023/08/17 01:53:14;;;;;;;14.43;12.90;;;;;;;;;;5065498;28;20467;-81
2023/08/17 01:55:41;;;;;;;13.57;12.30;;;;;;;;;;5065944;28;20571;-82
2023/08/17 01:58:10;;;;;;;16.43;12.23;;;;;;;;;;5065753;28;20473;-81
2023/08/17 02:00:37;;;;;;;12.20;11.10;;;;;;;;;;5066284;28;20479;-81
2023/08/17 02:03:05;;;;;;;13.73;12.33;;;;;;;;;;5066098;28;20540;-83
2023/08/17 02:06:01;;;;;;;11.07;10.03;;;;;;;;;;5083353;27;20556;-83
2023/08/17 02:08:28;;;;;;;16.70;11.97;;;;;;;;;;5082687;28;20459;-83
2023/08/17 02:10:56;;;;;;;15.93;12.97;;;;;;;;;;5082651;28;20443;-83
2023/08/17 02:13:23;;;;;;;15.43;13.93;;;;;;;;;;5083392;28;20555;-83
2023/08/17 02:15:50;;;;;;;14.00;12.60;;;;;;;;;;5081782;28;20463;-83
2023/08/17 02:18:18;;;;;;;14.83;12.30;;;;;;;;;;5082509;28;20444;-83
2023/08/17 02:23:50;;;;;;;12.70;11.50;;;;;;;;;;5083126;28;20510;-81
2023/08/17 02:26:18;;;;;;;12.43;11.13;;;;;;;;;;5082319;28;20476;-82
2023/08/17 02:28:45;;;;;;;14.63;13.00;;;;;;;;;;5082390;28;20555;-83
2023/08/17 02:31:12;;;;;;;15.13;13.30;;;;;;;;;;5082987;28;20471;-79
2023/08/17 02:33:40;;;;;;;21.87;15.17;;;;;;;;;;5082417;28;20563;-82
2023/08/17 02:36:07;;;;;;;17.20;15.40;;;;;;;;;;5082935;28;20479;-81
2023/08/17 02:38:35;;;;;;;19.40;17.33;;;;;;;;;;5082530;28;20452;-82
2023/08/17 02:41:03;;;;;;;18.30;16.33;;;;;;;;;;5082976;28;20456;-81
2023/08/17 02:43:31;;;;;;;16.10;14.40;;;;;;;;;;5083227;28;20483;-81
2023/08/17 02:45:59;;;;;;;16.93;14.90;;;;;;;;;;5083104;28;20510;-82
2023/08/17 02:48:26;;;;;;;14.53;13.10;;;;;;;;;;5082537;28;20456;-82
2023/08/17 02:50:54;;;;;;;15.10;13.70;;;;;;;;;;5081990;28;20866;-81
2023/08/17 02:53:21;;;;;;;15.37;12.93;;;;;;;;;;5082580;28;20580;-81
2023/08/17 02:55:48;;;;;;;16.30;14.63;;;;;;;;;;5082198;28;20459;-82
2023/08/17 02:58:17;;;;;;;17.17;15.43;;;;;;;;;;5081784;28;20865;-82
2023/08/17 03:00:44;;;;;;;16.53;14.83;;;;;;;;;;5080122;28;20522;-81
2023/08/17 03:03:12;;;;;;;19.33;16.87;;;;;;;;;;5081568;28;20471;-82
2023/08/17 03:05:40;;;;;;;21.07;17.37;;;;;;;;;;5080971;28;20503;-81
2023/08/17 03:08:07;;;;;;;22.13;17.90;;;;;;;;;;5081523;28;20434;-82
2023/08/17 03:10:35;;;;;;;19.53;17.20;;;;;;;;;;5080325;28;20460;-82
2023/08/17 03:13:02;;;;;;;19.93;17.97;;;;;;;;;;5080656;28;20456;-82
2023/08/17 03:15:31;;;;;;;21.40;19.33;;;;;;;;;;5076744;28;20930;-81
2023/08/17 03:17:58;;;;;;;24.47;20.13;;;;;;;;;;5067634;28;20795;-81
2023/08/17 03:20:25;;;;;;;31.20;21.20;;;;;;;;;;5066947;28;20448;-81
2023/08/17 03:22:53;;;;;;;27.70;19.27;;;;;;;;;;5066967;28;20465;-81
2023/08/17 03:25:20;;;;;;;21.63;19.33;;;;;;;;;;5067071;28;20542;-81
2023/08/17 03:27:48;;;;;;;21.80;18.10;;;;;;;;;;5067658;28;20512;-81
2023/08/17 03:30:15;;;;;;;20.17;18.10;;;;;;;;;;5068095;28;20457;-81
2023/08/17 03:32:44;;;;;;;20.37;18.37;;;;;;;;;;5068252;28;20472;-81
2023/08/17 03:35:12;;;;;;;19.83;17.73;;;;;;;;;;5067308;28;20476;-81
2023/08/17 03:37:40;;;;;;;19.47;17.07;;;;;;;;;;5067345;28;20441;-81
2023/08/17 03:40:08;;;;;;;22.77;16.90;;;;;;;;;;5067884;28;20864;-82
2023/08/17 03:42:35;;;;;;;17.67;15.87;;;;;;;;;;5068081;28;20508;-82
2023/08/17 03:45:03;;;;;;;18.53;16.43;;;;;;;;;;5067395;28;20468;-81
2023/08/17 03:47:30;;;;;;;21.10;17.90;;;;;;;;;;5067666;28;20448;-82
2023/08/17 03:49:59;;;;;;;21.10;16.93;;;;;;;;;;5067319;28;20829;-81
2023/08/17 03:52:26;;;;;;;19.70;17.70;;;;;;;;;;5066596;28;20473;-82
2023/08/17 03:54:54;;;;;;;25.93;23.23;;;;;;;;;;5066315;28;20464;-82
2023/08/17 03:57:21;;;;;;;20.43;17.83;;;;;;;;;;5066878;28;20464;-81
2023/08/17 03:59:48;;;;;;;18.33;16.17;;;;;;;;;;5066970;28;20941;-81
2023/08/17 04:02:16;;;;;;;15.60;14.10;;;;;;;;;;5066388;28;20501;-81
2023/08/17 04:04:43;;;;;;;13.10;11.90;;;;;;;;;;5066412;28;20488;-81
2023/08/17 04:07:47;;;;;;;15.37;11.53;;;;;;;;;;5066718;28;20479;-82
2023/08/17 04:10:16;;;;;;;12.90;11.70;;;;;;;;;;5064275;28;20445;-81
2023/08/17 04:12:43;;;;;;;11.40;10.30;;;;;;;;;;5065826;28;20521;-81
2023/08/17 04:15:11;;;;;;;13.43;12.03;;;;;;;;;;5065644;28;20829;-82
2023/08/17 04:17:38;;;;;;;19.60;15.17;;;;;;;;;;5066243;28;20453;-81
2023/08/17 04:20:06;;;;;;;15.13;13.73;;;;;;;;;;5064965;28;20528;-81
2023/08/17 04:22:33;;;;;;;20.43;16.80;;;;;;;;;;5063990;28;20492;-81
2023/08/17 04:25:01;;;;;;;14.50;13.00;;;;;;;;;;5064316;28;20484;-81
2023/08/17 04:27:29;;;;;;;13.80;12.40;;;;;;;;;;5064954;28;20837;-81
2023/08/17 04:29:56;;;;;;;13.60;11.43;;;;;;;;;;5068326;28;20508;-81
2023/08/17 04:32:23;;;;;;;12.57;11.47;;;;;;;;;;5068482;28;20495;-81
2023/08/17 04:34:50;;;;;;;11.10;10.07;;;;;;;;;;5068213;28;20453;-81
2023/08/17 04:37:18;;;;;;;13.00;11.20;;;;;;;;;;5067327;28;20448;-81
2023/08/17 04:39:47;;;;;;;11.27;10.23;;;;;;;;;;5068363;28;20449;-81
2023/08/17 04:42:15;;;;;;;10.67;9.63;;;;;;;;;;5068629;28;20504;-81
2023/08/17 04:44:43;;;;;;;9.60;8.80;;;;;;;;;;5068643;28;20491;-81
2023/08/17 04:47:11;;;;;;;9.50;8.60;;;;;;;;;;5068743;28;20536;-81
2023/08/17 04:49:38;;;;;;;7.57;6.87;;;;;;;;;;5067908;28;20502;-81
2023/08/17 04:52:05;;;;;;;7.93;7.23;;;;;;;;;;5061804;28;20480;-80
2023/08/17 04:54:32;;;;;;;11.10;7.43;;;;;;;;;;5058161;28;20449;-81
2023/08/17 04:56:59;;;;;;;11.50;9.60;;;;;;;;;;5057369;28;20456;-81
2023/08/17 04:59:26;;;;;;;11.17;8.30;;;;;;;;;;5057318;28;20496;-81
2023/08/17 05:01:55;;;;;;;9.00;8.23;;;;;;;;;;5057843;28;20476;-81
2023/08/17 05:04:22;;;;;;;8.73;8.00;;;;;;;;;;5059490;28;20460;-81
2023/08/17 05:06:49;;;;;;;9.53;8.63;;;;;;;;;;5058249;28;20453;-84
2023/08/17 05:09:16;;;;;;;10.40;9.27;;;;;;;;;;5057597;28;20453;-83
2023/08/17 05:11:43;;;;;;;9.37;8.67;;;;;;;;;;5056458;28;20491;-83
2023/08/17 05:14:11;;;;;;;9.33;8.40;;;;;;;;;;5056929;28;20459;-84
2023/08/17 05:16:38;;;;;;;9.37;8.47;;;;;;;;;;5057483;28;20444;-83
2023/08/17 05:19:06;;;;;;;10.57;9.67;;;;;;;;;;5055758;28;20500;-82
2023/08/17 05:21:33;;;;;;;9.27;8.10;;;;;;;;;;5054403;28;20480;-83
2023/08/17 05:24:01;;;;;;;9.50;8.60;;;;;;;;;;5055907;28;20453;-82
2023/08/17 05:26:28;;;;;;;12.70;8.97;;;;;;;;;;5054498;28;20746;-83
2023/08/17 05:28:55;;;;;;;10.90;9.90;;;;;;;;;;5055793;28;20457;-83
2023/08/17 05:31:22;;;;;;;9.47;8.57;;;;;;;;;;5055977;28;20441;-83
2023/08/17 05:33:49;;;;;;;8.37;7.67;;;;;;;;;;5055530;28;20472;-83
2023/08/17 05:36:17;;;;;;;9.93;7.77;;;;;;;;;;5055762;28;20837;-83
2023/08/17 05:38:45;;;;;;;9.17;8.37;;;;;;;;;;5055711;28;20526;-83
2023/08/17 05:41:12;;;;;;;8.20;7.50;;;;;;;;;;5056708;28;20457;-83
2023/08/17 05:43:39;;;;;;;8.30;7.43;;;;;;;;;;5055704;28;20444;-83
2023/08/17 05:46:06;;;;;;;10.13;8.30;;;;;;;;;;5055024;28;20583;-84
2023/08/17 05:48:34;;;;;;;10.90;7.97;;;;;;;;;;5054987;28;20807;-83
2023/08/17 05:51:01;;;;;;;8.40;7.00;;;;;;;;;;5055177;28;20449;-83
2023/08/17 05:53:29;;;;;;;8.00;7.47;;;;;;;;;;5055649;28;20815;-81
2023/08/17 05:55:56;;;;;;;7.87;7.27;;;;;;;;;;5055412;28;20453;-85
2023/08/17 05:58:24;;;;;;;8.30;7.60;;;;;;;;;;5055280;28;20432;-83
2023/08/17 06:00:51;;;;;;;6.80;6.30;;;;;;;;;;5055327;28;20452;-83
2023/08/17 06:03:18;;;;;;;7.27;6.77;;;;;;;;;;5055200;28;20483;-83
2023/08/17 06:05:45;;;;;;;6.90;6.30;;;;;;;;;;5053183;28;20507;-82
2023/08/17 06:08:12;;;;;;;6.80;6.40;;;;;;;;;;5053832;28;20455;-83
2023/08/17 06:10:40;;;;;;;7.20;6.70;;;;;;;;;;5055333;28;20964;-82
2023/08/17 06:13:08;;;;;;;7.70;6.40;;;;;;;;;;5055252;28;20554;-85
2023/08/17 06:15:35;;;;;;;7.20;6.60;;;;;;;;;;5055389;28;20452;-84
2023/08/17 06:18:02;;;;;;;6.80;6.30;;;;;;;;;;5054960;28;20462;-84
2023/08/17 06:20:29;;;;;;;7.57;6.97;;;;;;;;;;5055335;28;20448;-85
2023/08/17 06:22:56;;;;;;;8.00;7.20;;;;;;;;;;5055092;28;20983;-83
2023/08/17 06:25:24;;;;;;;7.27;6.53;;;;;;;;;;5055023;28;20487;-82
2023/08/17 06:27:52;;;;;;;7.17;6.67;;;;;;;;;;5055609;28;20555;-85
2023/08/17 06:30:19;;;;;;;7.23;6.63;;;;;;;;;;5055627;28;20818;-83
2023/08/17 06:32:46;;;;;;;7.33;6.73;;;;;;;;;;5055471;28;20460;-83
2023/08/17 06:35:13;;;;;;;9.30;5.90;;;;;;;;;;5055629;28;20793;-83
2023/08/17 06:37:41;;;;;;;7.07;6.57;;;;;;;;;;5055379;28;20454;-82
2023/08/17 06:40:09;;;;;;;8.20;6.80;;;;;;;;;;5055762;28;20306;-81
2023/08/17 06:42:37;;;;;;;7.30;6.60;;;;;;;;;;5056027;28;20324;-81
2023/08/17 06:45:06;;;;;;;8.33;7.63;;;;;;;;;;5055210;28;20225;-80
2023/08/17 06:47:33;;;;;;;8.23;7.53;;;;;;;;;;5041390;28;20218;-82
2023/08/17 06:50:00;;;;;;;8.20;7.50;;;;;;;;;;5033459;28;20203;-81
2023/08/17 06:52:27;;;;;;;7.47;6.83;;;;;;;;;;5038844;28;20236;-84
2023/08/17 06:54:54;;;;;;;9.10;8.30;;;;;;;;;;5039124;28;20211;-81
2023/08/17 06:57:22;;;;;;;9.70;9.00;;;;;;;;;;5039984;28;20694;-82
2023/08/17 06:59:49;;;;;;;9.32;8.63;;;;;;;;;;5039238;28;20218;-80
2023/08/17 07:02:18;;;;;;;7.50;6.93;;;;;;;;;;5038900;28;20227;-81
2023/08/17 07:04:45;;;;;;;11.05;7.18;;;;;;;;;;5038978;28;20266;-80
2023/08/17 07:07:14;;;;;;;8.00;7.22;;;;;;;;;;5038411;28;20602;-82
2023/08/17 07:09:41;;;;;;;8.15;7.55;;;;;;;;;;5039147;28;20217;-81
2023/08/17 07:12:08;;;;;;;8.52;7.85;;;;;;;;;;5038000;28;20261;-82
2023/08/17 07:14:35;;;;;;;8.80;8.05;;;;;;;;;;5038708;28;20221;-81
2023/08/17 07:17:02;;;;;;;8.10;7.40;;;;;;;;;;5038525;28;20219;-80
2023/08/17 07:19:31;;;;;;;7.90;7.30;;;;;;;;;;5038594;28;20207;-83
2023/08/17 07:21:58;;;;;;;8.45;6.68;;;;;;;;;;5039249;28;20711;-83
2023/08/17 07:24:25;;;;;;;6.85;6.32;;;;;;;;;;5038653;28;20214;-80
2023/08/17 07:26:52;;;;;;;7.50;6.70;;;;;;;;;;5038888;28;20234;-80
2023/08/17 07:29:19;;;;;;;10.90;7.03;;;;;;;;;;5038721;28;20212;-82
2023/08/17 07:31:46;;;;;;;9.07;8.27;;;;;;;;;;5037516;28;20525;-83
2023/08/17 07:34:13;;;;;;;8.37;7.63;;;;;;;;;;5039529;28;20453;-83
2023/08/17 07:36:43;;;;;;;8.77;8.07;;;;;;;;;;5039044;28;20466;-82
2023/08/17 07:39:10;;;;;;;8.43;7.77;;;;;;;;;;5038328;28;20551;-82
2023/08/17 07:41:37;;;;;;;11.80;10.00;;;;;;;;;;5038910;28;20478;-82
2023/08/17 07:44:05;;;;;;;10.10;8.40;;;;;;;;;;5038404;28;20529;-82
2023/08/17 07:46:32;;;;;;;9.73;8.93;;;;;;;;;;5038666;28;20838;-82
2023/08/17 07:48:59;;;;;;;10.83;8.87;;;;;;;;;;5038411;28;20452;-82
2023/08/17 07:51:26;;;;;;;11.17;10.17;;;;;;;;;;5038697;28;20460;-82
2023/08/17 07:53:54;;;;;;;10.60;9.60;;;;;;;;;;5039377;28;20458;-82
2023/08/17 07:56:22;;;;;;;11.13;10.00;;;;;;;;;;5038587;28;20808;-83
2023/08/17 07:58:49;;;;;;;11.40;10.50;;;;;;;;;;5037447;28;20458;-85
2023/08/17 08:01:16;;;;;;;11.60;9.83;;;;;;;;;;5037137;28;20935;-84
2023/08/17 08:03:43;;;;;;;9.17;8.03;;;;;;;;;;5037741;28;20454;-85
2023/08/17 08:06:10;;;;;;;9.77;9.00;;;;;;;;;;5037243;28;20570;-85
2023/08/17 08:08:37;;;;;;;9.63;8.73;;;;;;;;;;5037145;28;20481;-85
2023/08/17 08:11:06;;;;;;;10.57;9.63;;;;;;;;;;5037755;28;20462;-84
2023/08/17 08:13:33;;;;;;;11.17;9.13;;;;;;;;;;5036264;28;20881;-85
2023/08/17 08:16:00;;;;;;;9.50;8.70;;;;;;;;;;5037330;28;20454;-84
2023/08/17 08:18:27;;;;;;;9.53;8.67;;;;;;;;;;5037273;28;20803;-85
2023/08/17 08:20:54;;;;;;;9.53;8.63;;;;;;;;;;5037603;28;20444;-85
2023/08/17 08:23:21;;;;;;;13.30;9.83;;;;;;;;;;5037393;28;20970;-85
2023/08/17 08:25:48;;;;;;;9.13;8.23;;;;;;;;;;5037160;28;20497;-84
2023/08/17 08:28:17;;;;;;;9.37;7.77;;;;;;;;;;5037919;28;20457;-85
2023/08/17 08:30:44;;;;;;;10.33;9.37;;;;;;;;;;5038018;28;20469;-84
2023/08/17 08:33:11;;;;;;;8.57;7.87;;;;;;;;;;5037937;28;20482;-84
2023/08/17 08:35:40;;;;;;;9.90;9.03;;;;;;;;;;5038273;28;20465;-85
2023/08/17 08:38:07;;;;;;;10.40;9.40;;;;;;;;;;5036942;28;20846;-84
2023/08/17 08:40:34;;;;;;;9.03;8.23;;;;;;;;;;5035972;28;20444;-83
2023/08/17 08:43:01;;;;;;;12.60;8.63;;;;;;;;;;5036338;28;20477;-83
2023/08/17 08:45:31;;;;;;;12.40;7.73;;;;;;;;;;5036670;28;20461;-84
2023/08/17 08:47:59;;;;;;;13.77;7.83;;;;;;;;;;5036509;28;20453;-82
2023/08/17 08:50:27;;;;;;;8.67;7.97;;;;;;;;;;5035132;28;20473;-83
2023/08/17 08:53:00;;;;;;;7.57;6.90;;;;;;;;;;5035759;28;20841;-83
2023/08/17 08:55:29;;;;;;;8.20;7.60;;;;;;;;;;5035007;28;20513;-81
2023/08/17 08:57:57;;;;;;;8.53;7.70;;;;;;;;;;5036204;28;20445;-82
2023/08/17 09:00:26;;;;;;;8.30;7.50;;;;;;;;;;5036206;28;20529;-82
2023/08/17 09:02:55;;;;;;;8.33;7.63;;;;;;;;;;5034854;28;20474;-84
2023/08/17 09:05:22;;;;;;;8.50;7.80;;;;;;;;;;5033835;28;20513;-82
2023/08/17 09:07:50;;;;;;;12.47;7.67;;;;;;;;;;5034194;28;20482;-84
2023/08/17 09:10:17;;;;;;;13.83;8.73;;;;;;;;;;5034957;28;20470;-83
2023/08/17 09:12:45;;;;;;;8.57;7.87;;;;;;;;;;5035262;28;21044;-83
2023/08/17 09:15:12;;;;;;;7.23;6.73;;;;;;;;;;5035844;28;20475;-83
2023/08/17 09:17:39;;;;;;;8.17;7.57;;;;;;;;;;5046972;28;20465;-82
2023/08/17 09:20:10;;;;;;;9.47;8.70;;;;;;;;;;5033556;28;20468;-83
2023/08/17 09:22:40;;;;;;;14.60;9.50;;;;;;;;;;5034154;28;20484;-82
2023/08/17 09:25:08;;;;;;;9.60;8.70;;;;;;;;;;5033980;28;20461;-82
2023/08/17 09:27:35;;;;;;;9.10;8.30;;;;;;;;;;5034266;28;20875;-83
2023/08/17 09:30:04;;;;;;;10.03;8.67;;;;;;;;;;5034237;28;20824;-82
2023/08/17 09:32:32;;;;;;;8.97;8.07;;;;;;;;;;5034276;28;20480;-83
2023/08/17 09:34:59;;;;;;;9.00;8.10;;;;;;;;;;5033679;28;20526;-83
2023/08/17 09:37:28;;;;;;;10.27;9.47;;;;;;;;;;5033888;28;20818;-82
2023/08/17 09:39:55;;;;;;;8.70;8.00;;;;;;;;;;5033117;28;20461;-80
2023/08/17 09:42:22;;;;;;;9.20;8.40;;;;;;;;;;5033308;28;20481;-84
2023/08/17 09:44:50;;;;;;;9.03;8.10;;;;;;;;;;5033792;28;20442;-81
2023/08/17 09:47:18;;;;;;;12.70;9.20;;;;;;;;;;5034567;28;20485;-82
2023/08/17 09:49:49;;;;;;;9.67;8.80;;;;;;;;;;5035538;28;20465;-83
2023/08/17 09:52:16;;;;;;;10.70;9.70;;;;;;;;;;5034865;28;20931;-83
2023/08/17 09:54:45;;;;;;;10.63;9.63;;;;;;;;;;5034898;28;20469;-83
2023/08/17 09:57:12;;;;;;;13.03;9.10;;;;;;;;;;5034232;28;20472;-85
2023/08/17 09:59:39;;;;;;;10.53;9.40;;;;;;;;;;5035426;28;20461;-83
2023/08/17 10:02:10;;;;;;;9.33;8.40;;;;;;;;;;5036199;28;20496;-83
2023/08/17 10:04:37;;;;;;;8.30;7.70;;;;;;;;;;5035798;28;20480;-83
2023/08/17 10:07:05;;;;;;;8.80;8.10;;;;;;;;;;5035874;28;20485;-85
2023/08/17 10:09:33;;;;;;;8.97;8.17;;;;;;;;;;5035358;28;20453;-84
2023/08/17 10:12:03;;;;;;;9.80;8.90;;;;;;;;;;5035322;28;20996;-84
2023/08/17 10:14:33;;;;;;;8.37;7.60;;;;;;;;;;5035125;28;20453;-82
2023/08/17 10:17:03;;;;;;;10.23;9.30;;;;;;;;;;5035314;28;20812;-83
2023/08/17 10:19:35;;;;;;;9.00;8.33;;;;;;;;;;5034968;28;20515;-83
2023/08/17 10:22:05;;;;;;;10.97;8.70;;;;;;;;;;5034662;28;20472;-83
2023/08/17 10:24:36;;;;;;;8.40;7.80;;;;;;;;;;5035290;28;20456;-82
2023/08/17 10:27:04;;;;;;;10.13;8.90;;;;;;;;;;5055047;28;20922;-83
2023/08/17 10:29:32;;;;;;;8.97;8.17;;;;;;;;;;5056838;28;20448;-81
2023/08/17 10:32:00;;;;;;;8.33;7.67;;;;;;;;;;5056248;28;20468;-83
2023/08/17 10:34:28;;;;;;;8.77;7.97;;;;;;;;;;5057563;28;20904;-82
2023/08/17 10:36:57;;;;;;;9.60;8.70;;;;;;;;;;5058388;28;20471;-82
2023/08/17 10:39:25;;;;;;;8.13;7.33;;;;;;;;;;5057898;28;20518;-83
2023/08/17 10:41:53;;;;;;;8.47;7.67;;;;;;;;;;5057342;28;20480;-84
2023/08/17 10:44:39;;;;;;;11.53;7.97;;;;;;;;;;5057518;28;20460;-83
2023/08/17 10:47:20;;;;;;;8.07;7.47;;;;;;;;;;5056791;28;20880;-83
2023/08/17 10:49:47;;;;;;;9.10;8.40;;;;;;;;;;5057585;28;20452;-84
2023/08/17 10:52:14;;;;;;;9.20;8.30;;;;;;;;;;5057760;28;20564;-84
2023/08/17 10:54:41;;;;;;;8.33;7.73;;;;;;;;;;5057321;28;20534;-83
2023/08/17 10:57:23;;;;;;;8.20;7.50;;;;;;;;;;5056670;28;20516;-83
2023/08/17 11:00:07;;;;;;;10.40;7.53;;;;;;;;;;5054303;28;20496;-83
2023/08/17 11:02:35;;;;;;;9.13;8.30;;;;;;;;;;5056825;28;20465;-84
2023/08/17 11:05:03;;;;;;;11.33;8.93;;;;;;;;;;5056954;28;20986;-83
2023/08/17 11:07:40;;;;;;;9.00;7.87;;;;;;;;;;5057828;28;20491;-84
2023/08/17 11:10:12;;;;;;;8.57;7.77;;;;;;;;;;5057881;28;20448;-85
2023/08/17 11:12:39;;;;;;;8.23;7.40;;;;;;;;;;5058318;28;20887;-82
2023/08/17 11:15:08;;;;;;;11.33;8.20;;;;;;;;;;5058176;28;20452;-85
2023/08/17 11:17:35;;;;;;;7.83;7.13;;;;;;;;;;5059464;28;20459;-85
2023/08/17 11:20:03;;;;;;;8.50;7.80;;;;;;;;;;5058025;28;20453;-85
2023/08/17 11:22:30;;;;;;;8.60;7.77;;;;;;;;;;5059216;28;20559;-83
2023/08/17 11:24:58;;;;;;;7.70;7.07;;;;;;;;;;5059653;28;20444;-83
2023/08/17 11:27:25;;;;;;;8.27;7.40;;;;;;;;;;5058644;28;20484;-83
2023/08/17 11:29:53;;;;;;;8.30;7.50;;;;;;;;;;5059277;28;20452;-83
2023/08/17 11:32:22;;;;;;;8.10;7.40;;;;;;;;;;5058974;28;20473;-83
2023/08/17 11:34:49;;;;;;;8.23;7.33;;;;;;;;;;5058280;28;20813;-83
2023/08/17 11:37:17;;;;;;;7.23;6.73;;;;;;;;;;5058292;28;20459;-82
2023/08/17 11:39:44;;;;;;;7.60;6.90;;;;;;;;;;5058940;28;20437;-83
2023/08/17 11:42:11;;;;;;;6.30;5.73;;;;;;;;;;5058880;28;20472;-83
2023/08/17 11:44:39;;;;;;;7.70;6.00;;;;;;;;;;5058766;28;20463;-83
2023/08/17 11:47:06;;;;;;;6.67;6.17;;;;;;;;;;5058043;28;20875;-83
2023/08/17 11:49:35;;;;;;;11.20;6.60;;;;;;;;;;5059100;28;20444;-83
2023/08/17 11:52:02;;;;;;;14.70;6.43;;;;;;;;;;5059128;28;20472;-83
2023/08/17 11:54:29;;;;;;;6.63;6.13;;;;;;;;;;5057969;28;20854;-81
2023/08/17 11:56:56;;;;;;;6.17;5.67;;;;;;;;;;5060079;28;20459;-81
2023/08/17 11:59:23;;;;;;;8.20;6.73;;;;;;;;;;5062596;28;20449;-82
2023/08/17 12:01:50;;;;;;;6.83;6.30;;;;;;;;;;5067080;28;20461;-82
2023/08/17 12:04:17;;;;;;;6.70;6.17;;;;;;;;;;5063345;28;20518;-80
2023/08/17 12:06:46;;;;;;;6.90;6.10;;;;;;;;;;5064738;28;20461;-78
2023/08/17 12:09:14;;;;;;;7.43;6.73;;;;;;;;;;5068075;28;20429;-81
2023/08/17 12:11:41;;;;;;;8.10;7.40;;;;;;;;;;5067748;28;20475;-81
2023/08/17 12:14:11;;;;;;;6.80;6.27;;;;;;;;;;5063160;28;20448;-80
2023/08/17 12:16:47;;;;;;;8.20;7.53;;;;;;;;;;5057766;28;20436;-78
2023/08/17 12:19:14;;;;;;;7.57;6.90;;;;;;;;;;5057787;28;20456;-78
2023/08/17 12:21:42;;;;;;;7.43;6.93;;;;;;;;;;5056185;28;20488;-77
2023/08/17 12:24:14;;;;;;;7.10;6.40;;;;;;;;;;5057756;28;20883;-83
2023/08/17 12:26:43;;;;;;;7.50;6.90;;;;;;;;;;5061217;28;20484;-81
2023/08/17 12:29:10;;;;;;;7.90;7.20;;;;;;;;;;5057823;28;20461;-83
2023/08/17 12:31:37;;;;;;;7.20;6.50;;;;;;;;;;5060319;28;20841;-80
2023/08/17 12:34:05;;;;;;;8.03;6.43;;;;;;;;;;5060824;28;20520;-80
2023/08/17 12:36:32;;;;;;;8.63;6.60;;;;;;;;;;5059690;28;20472;-78
2023/08/17 12:39:00;;;;;;;6.93;6.33;;;;;;;;;;5059504;28;20455;-81
2023/08/17 12:41:28;;;;;;;8.40;7.60;;;;;;;;;;5061086;28;20519;-83
2023/08/17 12:43:58;;;;;;;6.90;6.30;;;;;;;;;;5061171;28;20465;-83
2023/08/17 12:46:25;;;;;;;8.07;7.30;;;;;;;;;;5062291;28;20469;-86
2023/08/17 12:48:52;;;;;;;8.27;7.53;;;;;;;;;;5058300;28;20495;-83
2023/08/17 12:51:20;;;;;;;7.50;6.90;;;;;;;;;;5061432;28;20922;-83
2023/08/17 12:53:47;;;;;;;10.20;7.90;;;;;;;;;;5058066;28;20449;-83
2023/08/17 12:56:14;;;;;;;9.20;8.23;;;;;;;;;;5059960;28;20453;-87
2023/08/17 12:58:42;;;;;;;10.07;8.27;;;;;;;;;;5060143;28;20512;-80
2023/08/17 13:01:09;;;;;;;11.53;8.00;;;;;;;;;;5058140;28;21009;-80
2023/08/17 13:03:36;;;;;;;7.97;7.20;;;;;;;;;;5060999;28;20468;-84
2023/08/17 13:06:04;;;;;;;7.83;7.20;;;;;;;;;;5060634;28;20445;-82
2023/08/17 13:08:31;;;;;;;8.20;7.40;;;;;;;;;;5061224;28;20481;-78
2023/08/17 13:10:58;;;;;;;9.70;7.20;;;;;;;;;;5058354;28;20453;-78
2023/08/17 13:13:25;;;;;;;9.17;7.97;;;;;;;;;;5056734;28;20476;-78
2023/08/17 13:15:54;;;;;;;11.77;7.10;;;;;;;;;;5058655;28;20455;-84
2023/08/17 13:18:21;;;;;;;9.87;7.93;;;;;;;;;;5054932;28;20528;-80
2023/08/17 13:20:48;;;;;;;10.03;8.37;;;;;;;;;;5056763;28;20564;-78
2023/08/17 13:23:15;;;;;;;8.33;7.47;;;;;;;;;;5059408;28;21016;-80
2023/08/17 13:25:42;;;;;;;8.30;7.47;;;;;;;;;;5056842;28;20449;-79
2023/08/17 13:28:09;;;;;;;7.00;6.37;;;;;;;;;;5057433;28;20516;-79
2023/08/17 13:30:36;;;;;;;7.80;7.20;;;;;;;;;;5058483;28;20429;-81
2023/08/17 13:33:06;;;;;;;10.60;8.50;;;;;;;;;;5057102;28;20465;-78
2023/08/17 13:35:33;;;;;;;8.80;8.10;;;;;;;;;;5056238;28;20961;-77
2023/08/17 13:38:02;;;;;;;7.97;7.17;;;;;;;;;;5056051;28;20828;-79
2023/08/17 13:40:29;;;;;;;9.67;8.67;;;;;;;;;;5056179;28;20467;-80
2023/08/17 13:42:58;;;;;;;8.30;7.50;;;;;;;;;;5055921;28;20465;-78
2023/08/17 13:45:25;;;;;;;10.43;7.83;;;;;;;;;;5054728;28;20465;-79
2023/08/17 13:48:11;;;;;;;8.50;7.60;;;;;;;;;;5056560;28;20499;-79
2023/08/17 13:50:40;;;;;;;8.30;7.07;;;;;;;;;;5056886;28;20456;-79
2023/08/17 13:56:10;;;;;;;10.03;7.10;;;;;;;;;;5053619;28;20438;-75
2023/08/17 13:58:38;;;;;;;10.17;7.43;;;;;;;;;;5052462;28;20888;-76
2023/08/17 14:01:05;;;;;;;7.50;6.87;;;;;;;;;;5053007;28;20456;-78
2023/08/17 14:03:32;;;;;;;7.90;7.13;;;;;;;;;;5054142;28;20461;-74
2023/08/17 14:06:00;;;;;;;8.00;7.20;;;;;;;;;;5055618;28;20802;-80
2023/08/17 14:08:27;;;;;;;14.33;6.87;;;;;;;;;;5057324;28;20481;-78
2023/08/17 14:10:54;;;;;;;6.60;6.10;;;;;;;;;;5055152;28;20452;-80
2023/08/17 14:13:22;;;;;;;7.30;6.53;;;;;;;;;;5053744;28;20801;-77
2023/08/17 14:15:49;;;;;;;11.27;7.00;;;;;;;;;;5054411;28;20449;-80
2023/08/17 14:18:16;;;;;;;7.20;6.60;;;;;;;;;;5052837;28;20440;-76
2023/08/17 14:20:43;;;;;;;7.27;6.73;;;;;;;;;;5054160;28;20449;-77
2023/08/17 14:23:11;;;;;;;7.80;7.10;;;;;;;;;;5053795;28;20859;-77
2023/08/17 14:25:38;;;;;;;8.37;7.17;;;;;;;;;;5052303;28;20448;-77
2023/08/17 14:28:07;;;;;;;6.63;6.10;;;;;;;;;;5051944;28;20499;-80
2023/08/17 14:30:34;;;;;;;7.13;6.53;;;;;;;;;;5053342;28;20509;-82
2023/08/17 14:33:01;;;;;;;9.53;7.50;;;;;;;;;;5053822;28;20457;-76
2023/08/17 14:35:28;;;;;;;7.10;6.50;;;;;;;;;;5054146;28;20448;-78
2023/08/17 14:37:57;;;;;;;9.63;6.73;;;;;;;;;;5053665;28;20449;-79
2023/08/17 14:40:26;;;;;;;7.30;6.60;;;;;;;;;;5053928;28;20873;-77
2023/08/17 14:42:53;;;;;;;6.83;6.20;;;;;;;;;;5054423;28;20460;-80
2023/08/17 14:45:20;;;;;;;8.27;6.20;;;;;;;;;;5053657;28;20449;-81